sensor_id;sensor_type;location;lat;lon;timestamp;pressure;altitude;pressure_sealevel;temperature;humidity
49393;BME280;35268;42.642;23.308;2022-11-06T00:00:17;93501.41;;;11.92;60.44
49393;BME280;35268;42.642;23.308;2022-11-06T00:02:44;93495.03;;;11.84;60.54
49393;BME280;35268;42.642;23.308;2022-11-06T00:05:10;93507.00;;;11.78;60.71
49393;BME280;35268;42.642;23.308;2022-11-06T00:07:54;93512.69;;;11.76;61.03
49393;BME280;35268;42.642;23.308;2022-11-06T00:10:19;93494.13;;;11.80;61.14
49393;BME280;35268;42.642;23.308;2022-11-06T00:12:46;93501.34;;;11.79;61.22
49393;BME280;35268;42.642;23.308;2022-11-06T00:15:12;93502.25;;;11.83;61.12
49393;BME280;35268;42.642;23.308;2022-11-06T00:17:38;93503.84;;;11.84;61.09
49393;BME280;35268;42.642;23.308;2022-11-06T00:20:05;93494.69;;;11.85;61.53
49393;BME280;35268;42.642;23.308;2022-11-06T00:22:35;93478.66;;;11.85;61.42
49393;BME280;35268;42.642;23.308;2022-11-06T00:25:01;93483.41;;;11.89;61.50
49393;BME280;35268;42.642;23.308;2022-11-06T00:27:27;93495.91;;;11.88;61.41
49393;BME280;35268;42.642;23.308;2022-11-06T00:29:52;93490.47;;;11.84;61.49
49393;BME280;35268;42.642;23.308;2022-11-06T00:32:18;93489.34;;;11.85;61.64
49393;BME280;35268;42.642;23.308;2022-11-06T00:34:43;93485.59;;;11.87;61.49
49393;BME280;35268;42.642;23.308;2022-11-06T00:37:09;93478.06;;;11.89;61.57
49393;BME280;35268;42.642;23.308;2022-11-06T00:39:34;93479.13;;;11.88;61.63
49393;BME280;35268;42.642;23.308;2022-11-06T00:41:59;93488.75;;;11.89;61.26
49393;BME280;35268;42.642;23.308;2022-11-06T00:44:25;93492.78;;;11.86;61.19
49393;BME280;35268;42.642;23.308;2022-11-06T00:46:50;93486.38;;;11.87;61.01
49393;BME280;35268;42.642;23.308;2022-11-06T00:49:16;93483.69;;;11.87;61.05
49393;BME280;35268;42.642;23.308;2022-11-06T00:51:41;93482.91;;;11.87;61.13
49393;BME280;35268;42.642;23.308;2022-11-06T00:54:10;93485.59;;;11.87;61.02
49393;BME280;35268;42.642;23.308;2022-11-06T00:56:36;93480.91;;;11.83;61.22
49393;BME280;35268;42.642;23.308;2022-11-06T00:59:04;93473.88;;;11.79;61.33
49393;BME280;35268;42.642;23.308;2022-11-06T01:01:32;93469.19;;;11.76;61.52
49393;BME280;35268;42.642;23.308;2022-11-06T01:04:00;93479.72;;;11.72;61.82
49393;BME280;35268;42.642;23.308;2022-11-06T01:06:29;93474.28;;;11.69;61.78
49393;BME280;35268;42.642;23.308;2022-11-06T01:08:55;93472.59;;;11.64;61.56
49393;BME280;35268;42.642;23.308;2022-11-06T01:11:28;93474.81;;;11.62;61.76
49393;BME280;35268;42.642;23.308;2022-11-06T01:13:55;93464.81;;;11.59;61.87
49393;BME280;35268;42.642;23.308;2022-11-06T01:16:22;93457.78;;;11.54;62.18
49393;BME280;35268;42.642;23.308;2022-11-06T01:18:48;93462.31;;;11.54;62.27
49393;BME280;35268;42.642;23.308;2022-11-06T01:21:18;93452.44;;;11.54;62.38
49393;BME280;35268;42.642;23.308;2022-11-06T01:23:44;93448.66;;;11.55;62.79
49393;BME280;35268;42.642;23.308;2022-11-06T01:26:11;93444.88;;;11.56;62.97
49393;BME280;35268;42.642;23.308;2022-11-06T01:28:38;93436.97;;;11.60;62.86
49393;BME280;35268;42.642;23.308;2022-11-06T01:31:06;93437.56;;;11.65;62.96
49393;BME280;35268;42.642;23.308;2022-11-06T01:33:31;93439.25;;;11.70;62.92
49393;BME280;35268;42.642;23.308;2022-11-06T01:35:57;93434.78;;;11.74;62.79
49393;BME280;35268;42.642;23.308;2022-11-06T01:38:22;93438.03;;;11.80;62.44
49393;BME280;35268;42.642;23.308;2022-11-06T01:40:48;93439.75;;;11.84;62.06
49393;BME280;35268;42.642;23.308;2022-11-06T01:43:23;93444.41;;;11.88;62.13
49393;BME280;35268;42.642;23.308;2022-11-06T01:45:51;93434.66;;;11.92;61.92
49393;BME280;35268;42.642;23.308;2022-11-06T01:48:20;93433.56;;;11.93;61.72
49393;BME280;35268;42.642;23.308;2022-11-06T01:50:51;93430.22;;;11.96;61.81
49393;BME280;35268;42.642;23.308;2022-11-06T01:53:18;93433.31;;;11.98;61.89
49393;BME280;35268;42.642;23.308;2022-11-06T01:55:46;93433.78;;;12.00;61.53
49393;BME280;35268;42.642;23.308;2022-11-06T01:58:16;93432.78;;;12.04;61.39
49393;BME280;35268;42.642;23.308;2022-11-06T02:00:42;93434.34;;;12.06;61.27
49393;BME280;35268;42.642;23.308;2022-11-06T02:03:08;93439.00;;;12.09;61.08
49393;BME280;35268;42.642;23.308;2022-11-06T02:05:37;93424.69;;;12.13;60.99
49393;BME280;35268;42.642;23.308;2022-11-06T02:08:03;93433.22;;;12.19;60.66
49393;BME280;35268;42.642;23.308;2022-11-06T02:10:29;93440.28;;;12.23;60.29
49393;BME280;35268;42.642;23.308;2022-11-06T02:15:50;93428.00;;;12.22;61.04
49393;BME280;35268;42.642;23.308;2022-11-06T02:24:29;93435.00;;;12.27;61.04
49393;BME280;35268;42.642;23.308;2022-11-06T02:27:04;93430.69;;;12.35;60.37
49393;BME280;35268;42.642;23.308;2022-11-06T02:35:10;93427.56;;;12.45;60.31
49393;BME280;35268;42.642;23.308;2022-11-06T02:37:38;93428.81;;;12.48;60.26
49393;BME280;35268;42.642;23.308;2022-11-06T02:40:07;93430.03;;;12.50;59.82
49393;BME280;35268;42.642;23.308;2022-11-06T02:42:37;93427.47;;;12.54;59.17
49393;BME280;35268;42.642;23.308;2022-11-06T02:45:07;93424.88;;;12.57;57.93
49393;BME280;35268;42.642;23.308;2022-11-06T02:47:34;93429.91;;;12.59;57.48
49393;BME280;35268;42.642;23.308;2022-11-06T02:50:06;93427.78;;;12.64;57.06
49393;BME280;35268;42.642;23.308;2022-11-06T02:52:48;93417.41;;;12.75;56.27
49393;BME280;35268;42.642;23.308;2022-11-06T02:55:27;93438.22;;;12.82;56.05
49393;BME280;35268;42.642;23.308;2022-11-06T02:57:59;93434.63;;;12.90;55.23
49393;BME280;35268;42.642;23.308;2022-11-06T03:00:26;93444.88;;;13.00;54.62
49393;BME280;35268;42.642;23.308;2022-11-06T03:03:00;93437.06;;;13.08;54.10
49393;BME280;35268;42.642;23.308;2022-11-06T03:05:34;93432.38;;;13.17;53.54
49393;BME280;35268;42.642;23.308;2022-11-06T03:08:14;93431.88;;;13.27;53.27
49393;BME280;35268;42.642;23.308;2022-11-06T03:11:14;93439.78;;;13.36;53.26
49393;BME280;35268;42.642;23.308;2022-11-06T03:13:57;93445.16;;;13.36;53.62
49393;BME280;35268;42.642;23.308;2022-11-06T03:24:30;93454.34;;;13.51;53.67
49393;BME280;35268;42.642;23.308;2022-11-06T03:26:58;93451.78;;;13.54;53.80
49393;BME280;35268;42.642;23.308;2022-11-06T03:29:28;93462.81;;;13.53;54.10
49393;BME280;35268;42.642;23.308;2022-11-06T03:32:23;93470.84;;;13.53;55.15
49393;BME280;35268;42.642;23.308;2022-11-06T03:34:54;93473.41;;;13.49;56.00
49393;BME280;35268;42.642;23.308;2022-11-06T03:37:29;93476.59;;;13.39;57.26
49393;BME280;35268;42.642;23.308;2022-11-06T03:39:57;93468.38;;;13.32;58.04
49393;BME280;35268;42.642;23.308;2022-11-06T03:42:27;93476.59;;;13.27;59.06
49393;BME280;35268;42.642;23.308;2022-11-06T03:44:58;93474.16;;;13.21;59.60
49393;BME280;35268;42.642;23.308;2022-11-06T03:47:37;93466.34;;;13.16;60.43
49393;BME280;35268;42.642;23.308;2022-11-06T03:50:29;93464.59;;;13.08;61.19
49393;BME280;35268;42.642;23.308;2022-11-06T03:53:11;93466.97;;;12.97;62.42
49393;BME280;35268;42.642;23.308;2022-11-06T03:55:44;93465.84;;;12.86;63.12
49393;BME280;35268;42.642;23.308;2022-11-06T03:58:19;93461.84;;;12.80;63.62
49393;BME280;35268;42.642;23.308;2022-11-06T04:00:46;93471.44;;;12.81;63.91
49393;BME280;35268;42.642;23.308;2022-11-06T04:03:24;93468.97;;;12.76;63.67
49393;BME280;35268;42.642;23.308;2022-11-06T04:05:55;93472.34;;;12.73;64.11
49393;BME280;35268;42.642;23.308;2022-11-06T04:08:25;93469.22;;;12.71;64.15
49393;BME280;35268;42.642;23.308;2022-11-06T04:11:14;93463.88;;;12.58;64.20
49393;BME280;35268;42.642;23.308;2022-11-06T04:14:02;93470.56;;;12.40;64.56
49393;BME280;35268;42.642;23.308;2022-11-06T04:16:40;93474.66;;;12.37;64.74
49393;BME280;35268;42.642;23.308;2022-11-06T04:19:15;93475.53;;;12.29;65.03
49393;BME280;35268;42.642;23.308;2022-11-06T04:24:58;93468.50;;;12.00;66.57
49393;BME280;35268;42.642;23.308;2022-11-06T04:44:27;93500.81;;;12.07;67.94
49393;BME280;35268;42.642;23.308;2022-11-06T04:47:06;93496.88;;;12.04;68.08
49393;BME280;35268;42.642;23.308;2022-11-06T04:49:34;93495.91;;;12.09;68.13
49393;BME280;35268;42.642;23.308;2022-11-06T04:52:03;93497.00;;;12.08;68.41
49393;BME280;35268;42.642;23.308;2022-11-06T04:54:30;93499.47;;;12.13;68.41
49393;BME280;35268;42.642;23.308;2022-11-06T04:56:59;93500.81;;;12.07;68.44
49393;BME280;35268;42.642;23.308;2022-11-06T04:59:25;93492.78;;;12.07;68.75
49393;BME280;35268;42.642;23.308;2022-11-06T05:01:51;93499.22;;;12.06;68.79
49393;BME280;35268;42.642;23.308;2022-11-06T05:04:17;93502.13;;;12.01;69.42
49393;BME280;35268;42.642;23.308;2022-11-06T05:06:43;93517.25;;;11.97;69.73
49393;BME280;35268;42.642;23.308;2022-11-06T05:09:08;93525.13;;;11.93;69.87
49393;BME280;35268;42.642;23.308;2022-11-06T05:11:34;93525.44;;;11.92;69.96
49393;BME280;35268;42.642;23.308;2022-11-06T05:13:59;93531.56;;;11.92;70.06
49393;BME280;35268;42.642;23.308;2022-11-06T05:16:25;93543.06;;;11.93;69.81
49393;BME280;35268;42.642;23.308;2022-11-06T05:18:50;93536.91;;;11.92;69.87
49393;BME280;35268;42.642;23.308;2022-11-06T05:21:16;93540.25;;;11.89;69.99
49393;BME280;35268;42.642;23.308;2022-11-06T05:23:59;93548.25;;;11.89;70.20
49393;BME280;35268;42.642;23.308;2022-11-06T05:26:25;93549.03;;;11.90;70.16
49393;BME280;35268;42.642;23.308;2022-11-06T05:28:50;93549.31;;;11.88;70.07
49393;BME280;35268;42.642;23.308;2022-11-06T05:31:16;93555.66;;;11.83;70.54
49393;BME280;35268;42.642;23.308;2022-11-06T05:33:41;93563.22;;;11.81;70.63
49393;BME280;35268;42.642;23.308;2022-11-06T05:36:07;93565.44;;;11.79;70.74
49393;BME280;35268;42.642;23.308;2022-11-06T05:38:33;93561.63;;;11.80;70.79
49393;BME280;35268;42.642;23.308;2022-11-06T05:40:58;93557.75;;;11.78;70.75
49393;BME280;35268;42.642;23.308;2022-11-06T05:43:24;93564.84;;;11.74;71.67
49393;BME280;35268;42.642;23.308;2022-11-06T05:45:49;93565.16;;;11.72;71.98
49393;BME280;35268;42.642;23.308;2022-11-06T05:48:15;93567.38;;;11.70;72.25
49393;BME280;35268;42.642;23.308;2022-11-06T05:50:40;93581.19;;;11.72;72.57
49393;BME280;35268;42.642;23.308;2022-11-06T05:53:06;93582.09;;;11.76;72.48
49393;BME280;35268;42.642;23.308;2022-11-06T05:55:31;93588.81;;;11.82;72.24
49393;BME280;35268;42.642;23.308;2022-11-06T05:57:57;93588.94;;;11.86;72.46
49393;BME280;35268;42.642;23.308;2022-11-06T06:00:23;93593.00;;;11.92;72.42
49393;BME280;35268;42.642;23.308;2022-11-06T06:02:49;93601.91;;;11.96;72.51
49393;BME280;35268;42.642;23.308;2022-11-06T06:05:15;93586.03;;;12.00;71.95
49393;BME280;35268;42.642;23.308;2022-11-06T06:07:40;93594.16;;;12.03;72.25
49393;BME280;35268;42.642;23.308;2022-11-06T06:10:06;93599.75;;;12.11;72.15
49393;BME280;35268;42.642;23.308;2022-11-06T06:12:32;93598.66;;;12.12;72.01
49393;BME280;35268;42.642;23.308;2022-11-06T06:14:58;93593.44;;;12.15;72.03
49393;BME280;35268;42.642;23.308;2022-11-06T06:17:23;93608.16;;;12.21;71.92
49393;BME280;35268;42.642;23.308;2022-11-06T06:19:49;93612.19;;;12.28;71.89
49393;BME280;35268;42.642;23.308;2022-11-06T06:22:14;93608.28;;;12.37;71.63
49393;BME280;35268;42.642;23.308;2022-11-06T06:24:40;93615.78;;;12.44;71.36
49393;BME280;35268;42.642;23.308;2022-11-06T06:27:05;93625.94;;;12.51;71.32
49393;BME280;35268;42.642;23.308;2022-11-06T06:29:31;93624.28;;;12.58;71.19
49393;BME280;35268;42.642;23.308;2022-11-06T06:31:56;93617.81;;;12.59;71.17
49393;BME280;35268;42.642;23.308;2022-11-06T06:34:22;93611.03;;;12.62;71.12
49393;BME280;35268;42.642;23.308;2022-11-06T06:36:52;93612.72;;;12.67;70.94
49393;BME280;35268;42.642;23.308;2022-11-06T06:39:18;93619.41;;;12.73;70.80
49393;BME280;35268;42.642;23.308;2022-11-06T06:41:44;93619.63;;;12.80;70.34
49393;BME280;35268;42.642;23.308;2022-11-06T06:44:10;93627.00;;;12.83;70.20
49393;BME280;35268;42.642;23.308;2022-11-06T06:46:35;93627.22;;;12.90;70.15
49393;BME280;35268;42.642;23.308;2022-11-06T06:49:01;93626.56;;;12.93;70.05
49393;BME280;35268;42.642;23.308;2022-11-06T06:51:26;93632.69;;;12.94;70.00
49393;BME280;35268;42.642;23.308;2022-11-06T06:53:51;93626.56;;;12.93;70.40
49393;BME280;35268;42.642;23.308;2022-11-06T06:56:17;93630.78;;;12.94;70.24
49393;BME280;35268;42.642;23.308;2022-11-06T06:58:42;93636.06;;;13.03;70.05
49393;BME280;35268;42.642;23.308;2022-11-06T07:01:08;93645.44;;;13.09;69.91
49393;BME280;35268;42.642;23.308;2022-11-06T07:03:36;93646.53;;;13.08;69.75
49393;BME280;35268;42.642;23.308;2022-11-06T07:06:02;93652.44;;;13.14;69.72
49393;BME280;35268;42.642;23.308;2022-11-06T07:08:28;93643.53;;;13.22;69.21
49393;BME280;35268;42.642;23.308;2022-11-06T07:11:03;93660.75;;;13.33;68.62
49393;BME280;35268;42.642;23.308;2022-11-06T07:13:29;93657.84;;;13.38;68.11
49393;BME280;35268;42.642;23.308;2022-11-06T07:15:55;93666.44;;;13.44;68.05
49393;BME280;35268;42.642;23.308;2022-11-06T07:18:20;93668.53;;;13.51;67.77
49393;BME280;35268;42.642;23.308;2022-11-06T07:20:46;93677.91;;;13.57;67.63
49393;BME280;35268;42.642;23.308;2022-11-06T07:23:11;93676.13;;;13.61;67.67
49393;BME280;35268;42.642;23.308;2022-11-06T07:25:37;93677.78;;;13.65;67.38
49393;BME280;35268;42.642;23.308;2022-11-06T07:28:06;93677.00;;;13.65;67.28
49393;BME280;35268;42.642;23.308;2022-11-06T07:30:33;93668.75;;;13.70;66.73
49393;BME280;35268;42.642;23.308;2022-11-06T07:33:03;93675.66;;;13.71;66.35
49393;BME280;35268;42.642;23.308;2022-11-06T07:35:29;93681.00;;;13.71;66.06
49393;BME280;35268;42.642;23.308;2022-11-06T07:37:55;93677.22;;;13.72;65.30
49393;BME280;35268;42.642;23.308;2022-11-06T07:40:21;93688.03;;;13.76;65.00
49393;BME280;35268;42.642;23.308;2022-11-06T07:42:46;93677.22;;;13.72;65.24
49393;BME280;35268;42.642;23.308;2022-11-06T07:45:12;93673.41;;;13.73;65.20
49393;BME280;35268;42.642;23.308;2022-11-06T07:47:37;93674.13;;;13.70;65.51
49393;BME280;35268;42.642;23.308;2022-11-06T07:50:03;93683.69;;;13.71;65.50
49393;BME280;35268;42.642;23.308;2022-11-06T07:52:29;93680.81;;;13.76;65.35
49393;BME280;35268;42.642;23.308;2022-11-06T07:54:55;93683.91;;;13.78;65.41
49393;BME280;35268;42.642;23.308;2022-11-06T07:57:20;93680.56;;;13.81;65.67
49393;BME280;35268;42.642;23.308;2022-11-06T07:59:46;93690.59;;;13.84;65.54
49393;BME280;35268;42.642;23.308;2022-11-06T08:02:11;93686.03;;;13.85;65.70
49393;BME280;35268;42.642;23.308;2022-11-06T08:04:37;93693.72;;;13.87;66.06
49393;BME280;35268;42.642;23.308;2022-11-06T08:07:02;93686.13;;;13.89;66.20
49393;BME280;35268;42.642;23.308;2022-11-06T08:09:28;93690.38;;;13.90;66.42
49393;BME280;35268;42.642;23.308;2022-11-06T08:11:53;93693.16;;;13.93;66.23
49393;BME280;35268;42.642;23.308;2022-11-06T08:14:19;93694.03;;;13.97;66.11
49393;BME280;35268;42.642;23.308;2022-11-06T08:16:44;93699.50;;;14.01;65.85
49393;BME280;35268;42.642;23.308;2022-11-06T08:19:10;93695.91;;;14.09;65.76
49393;BME280;35268;42.642;23.308;2022-11-06T08:21:35;93702.28;;;14.17;66.02
49393;BME280;35268;42.642;23.308;2022-11-06T08:24:01;93702.47;;;14.24;65.89
49393;BME280;35268;42.642;23.308;2022-11-06T08:26:26;93693.66;;;14.23;65.85
49393;BME280;35268;42.642;23.308;2022-11-06T08:28:52;93700.56;;;14.24;66.19
49393;BME280;35268;42.642;23.308;2022-11-06T08:31:18;93697.97;;;14.28;66.48
49393;BME280;35268;42.642;23.308;2022-11-06T08:33:45;93705.00;;;14.33;67.29
49393;BME280;35268;42.642;23.308;2022-11-06T08:36:10;93704.34;;;14.36;67.46
49393;BME280;35268;42.642;23.308;2022-11-06T08:38:36;93700.88;;;14.35;67.71
49393;BME280;35268;42.642;23.308;2022-11-06T08:41:10;93708.13;;;14.35;69.40
49393;BME280;35268;42.642;23.308;2022-11-06T08:43:36;93713.47;;;14.35;70.40
49393;BME280;35268;42.642;23.308;2022-11-06T08:46:03;93719.72;;;14.39;70.79
49393;BME280;35268;42.642;23.308;2022-11-06T08:48:29;93726.66;;;14.40;70.59
49393;BME280;35268;42.642;23.308;2022-11-06T08:50:54;93719.28;;;14.37;70.99
49393;BME280;35268;42.642;23.308;2022-11-06T08:53:20;93725.53;;;14.41;71.10
49393;BME280;35268;42.642;23.308;2022-11-06T08:55:45;93729.34;;;14.40;71.49
49393;BME280;35268;42.642;23.308;2022-11-06T08:58:11;93735.81;;;14.39;71.60
49393;BME280;35268;42.642;23.308;2022-11-06T09:00:38;93737.38;;;14.40;71.71
49393;BME280;35268;42.642;23.308;2022-11-06T09:03:06;93735.25;;;14.45;71.88
49393;BME280;35268;42.642;23.308;2022-11-06T09:05:32;93727.31;;;14.49;71.48
49393;BME280;35268;42.642;23.308;2022-11-06T09:07:58;93724.63;;;14.49;71.49
49393;BME280;35268;42.642;23.308;2022-11-06T09:10:24;93730.06;;;14.53;71.57
49393;BME280;35268;42.642;23.308;2022-11-06T09:12:50;93719.47;;;14.56;71.46
49393;BME280;35268;42.642;23.308;2022-11-06T09:15:16;93728.50;;;14.64;71.46
49393;BME280;35268;42.642;23.308;2022-11-06T09:17:43;93729.50;;;14.72;71.19
49393;BME280;35268;42.642;23.308;2022-11-06T09:20:09;93729.94;;;14.74;71.33
49393;BME280;35268;42.642;23.308;2022-11-06T09:22:34;93728.13;;;14.78;71.87
49393;BME280;35268;42.642;23.308;2022-11-06T09:25:00;93731.25;;;14.80;71.50
49393;BME280;35268;42.642;23.308;2022-11-06T09:27:25;93727.53;;;14.84;71.88
49393;BME280;35268;42.642;23.308;2022-11-06T09:29:51;93736.25;;;14.81;71.58
49393;BME280;35268;42.642;23.308;2022-11-06T09:32:16;93746.22;;;14.81;71.33
49393;BME280;35268;42.642;23.308;2022-11-06T09:34:42;93734.16;;;14.75;71.47
49393;BME280;35268;42.642;23.308;2022-11-06T09:37:07;93740.66;;;14.74;71.52
49393;BME280;35268;42.642;23.308;2022-11-06T09:39:33;93736.13;;;14.62;71.72
49393;BME280;35268;42.642;23.308;2022-11-06T09:46:52;93736.91;;;14.62;71.42
49393;BME280;35268;42.642;23.308;2022-11-06T09:49:39;93736.56;;;14.64;71.28
49393;BME280;35268;42.642;23.308;2022-11-06T09:52:16;93730.06;;;14.65;70.83
49393;BME280;35268;42.642;23.308;2022-11-06T09:54:50;93739.78;;;14.70;71.20
49393;BME280;35268;42.642;23.308;2022-11-06T09:57:48;93741.09;;;14.76;70.50
49393;BME280;35268;42.642;23.308;2022-11-06T10:00:14;93743.00;;;14.75;70.98
49393;BME280;35268;42.642;23.308;2022-11-06T10:02:50;93740.41;;;14.79;70.52
49393;BME280;35268;42.642;23.308;2022-11-06T10:05:25;93735.25;;;14.86;69.64
49393;BME280;35268;42.642;23.308;2022-11-06T10:07:56;93736.78;;;14.87;69.34
49393;BME280;35268;42.642;23.308;2022-11-06T10:10:30;93727.28;;;14.90;68.77
49393;BME280;35268;42.642;23.308;2022-11-06T10:18:46;93733.88;;;14.92;68.17
49393;BME280;35268;42.642;23.308;2022-11-06T10:23:50;93736.28;;;14.97;68.38
49393;BME280;35268;42.642;23.308;2022-11-06T10:34:40;93736.06;;;15.02;67.17
49393;BME280;35268;42.642;23.308;2022-11-06T10:37:28;93735.25;;;15.02;67.10
49393;BME280;35268;42.642;23.308;2022-11-06T10:40:14;93742.63;;;15.05;67.21
49393;BME280;35268;42.642;23.308;2022-11-06T10:42:41;93742.63;;;15.05;66.93
49393;BME280;35268;42.642;23.308;2022-11-06T10:45:16;93739.25;;;15.08;67.52
49393;BME280;35268;42.642;23.308;2022-11-06T10:47:45;93737.81;;;15.11;67.09
49393;BME280;35268;42.642;23.308;2022-11-06T10:50:14;93740.06;;;15.09;66.91
49393;BME280;35268;42.642;23.308;2022-11-06T10:52:57;93744.63;;;15.08;66.20
49393;BME280;35268;42.642;23.308;2022-11-06T10:55:40;93747.66;;;15.07;65.94
49393;BME280;35268;42.642;23.308;2022-11-06T10:58:16;93747.78;;;15.10;66.32
49393;BME280;35268;42.642;23.308;2022-11-06T11:00:42;93750.53;;;15.14;67.02
49393;BME280;35268;42.642;23.308;2022-11-06T11:03:30;93745.59;;;15.16;67.12
49393;BME280;35268;42.642;23.308;2022-11-06T11:05:57;93744.16;;;15.18;67.13
49393;BME280;35268;42.642;23.308;2022-11-06T11:08:46;93749.50;;;15.18;67.39
49393;BME280;35268;42.642;23.308;2022-11-06T11:11:18;93749.41;;;15.15;67.32
49393;BME280;35268;42.642;23.308;2022-11-06T11:13:48;93739.34;;;15.12;67.05
49393;BME280;35268;42.642;23.308;2022-11-06T11:16:36;93742.47;;;15.14;67.63
49393;BME280;35268;42.642;23.308;2022-11-06T11:19:23;93742.66;;;15.21;68.82
49393;BME280;35268;42.642;23.308;2022-11-06T11:21:53;93738.84;;;15.22;68.92
49393;BME280;35268;42.642;23.308;2022-11-06T11:24:19;93751.16;;;15.23;69.45
49393;BME280;35268;42.642;23.308;2022-11-06T11:27:05;93739.28;;;15.24;69.24
49393;BME280;35268;42.642;23.308;2022-11-06T11:32:03;93735.91;;;15.27;69.61
49393;BME280;35268;42.642;23.308;2022-11-06T11:34:34;93741.72;;;15.29;69.85
49393;BME280;35268;42.642;23.308;2022-11-06T11:37:04;93741.44;;;15.34;70.22
49393;BME280;35268;42.642;23.308;2022-11-06T11:39:43;93734.09;;;15.31;69.22
49393;BME280;35268;42.642;23.308;2022-11-06T11:50:49;93737.13;;;15.45;68.15
49393;BME280;35268;42.642;23.308;2022-11-06T11:53:19;93731.50;;;15.51;67.33
49393;BME280;35268;42.642;23.308;2022-11-06T11:55:47;93737.91;;;15.46;66.91
49393;BME280;35268;42.642;23.308;2022-11-06T11:58:19;93733.75;;;15.49;67.13
49393;BME280;35268;42.642;23.308;2022-11-06T12:00:57;93729.94;;;15.50;66.92
49393;BME280;35268;42.642;23.308;2022-11-06T12:03:31;93724.16;;;15.48;67.44
49393;BME280;35268;42.642;23.308;2022-11-06T12:06:21;93728.66;;;15.43;68.18
49393;BME280;35268;42.642;23.308;2022-11-06T12:08:49;93722.94;;;15.45;68.79
49393;BME280;35268;42.642;23.308;2022-11-06T12:11:20;93723.09;;;15.36;68.78
49393;BME280;35268;42.642;23.308;2022-11-06T12:17:18;93732.97;;;15.32;68.03
49393;BME280;35268;42.642;23.308;2022-11-06T12:19:51;93730.88;;;15.25;68.47
49393;BME280;35268;42.642;23.308;2022-11-06T12:22:24;93728.81;;;15.19;69.04
49393;BME280;35268;42.642;23.308;2022-11-06T12:25:15;93741.03;;;15.16;68.36
49393;BME280;35268;42.642;23.308;2022-11-06T12:27:42;93741.50;;;15.06;68.53
49393;BME280;35268;42.642;23.308;2022-11-06T12:30:13;93731.13;;;15.04;68.69
49393;BME280;35268;42.642;23.308;2022-11-06T12:35:46;93737.94;;;14.86;68.80
49393;BME280;35268;42.642;23.308;2022-11-06T12:38:43;93736.19;;;14.78;69.06
49393;BME280;35268;42.642;23.308;2022-11-06T12:44:40;93736.41;;;14.73;69.13
49393;BME280;35268;42.642;23.308;2022-11-06T12:47:33;93736.41;;;14.73;69.21
49393;BME280;35268;42.642;23.308;2022-11-06T12:50:20;93729.50;;;14.72;69.39
49393;BME280;35268;42.642;23.308;2022-11-06T12:56:31;93738.75;;;14.74;69.11
49393;BME280;35268;42.642;23.308;2022-11-06T12:58:54;93730.72;;;14.74;69.13
49393;BME280;35268;42.642;23.308;2022-11-06T13:17:03;93745.06;;;14.66;68.96
49393;BME280;35268;42.642;23.308;2022-11-06T13:19:56;93736.91;;;14.62;68.90
49393;BME280;35268;42.642;23.308;2022-11-06T13:22:33;93742.97;;;14.59;69.13
49393;BME280;35268;42.642;23.308;2022-11-06T13:25:21;93746.31;;;14.56;68.91
49393;BME280;35268;42.642;23.308;2022-11-06T13:30:36;93758.38;;;14.50;68.82
49393;BME280;35268;42.642;23.308;2022-11-06T13:35:37;93765.53;;;14.46;69.15
49393;BME280;35268;42.642;23.308;2022-11-06T13:38:10;93761.97;;;14.42;69.33
49393;BME280;35268;42.642;23.308;2022-11-06T13:40:41;93766.19;;;14.43;69.51
49393;BME280;35268;42.642;23.308;2022-11-06T13:43:57;93764.41;;;14.47;69.36
49393;BME280;35268;42.642;23.308;2022-11-06T13:55:17;93763.50;;;14.43;69.00
49393;BME280;35268;42.642;23.308;2022-11-06T14:00:57;93768.00;;;14.39;68.93
49393;BME280;35268;42.642;23.308;2022-11-06T14:06:45;93770.78;;;14.42;68.55
49393;BME280;35268;42.642;23.308;2022-11-06T14:09:21;93771.34;;;14.48;67.92
49393;BME280;35268;42.642;23.308;2022-11-06T14:11:55;93767.63;;;14.53;67.96
49393;BME280;35268;42.642;23.308;2022-11-06T14:14:24;93768.88;;;14.55;67.48
49393;BME280;35268;42.642;23.308;2022-11-06T14:19:38;93763.28;;;14.60;66.15
49393;BME280;35268;42.642;23.308;2022-11-06T14:24:33;93775.34;;;14.54;65.60
49393;BME280;35268;42.642;23.308;2022-11-06T14:27:05;93770.22;;;14.49;65.43
49393;BME280;35268;42.642;23.308;2022-11-06T14:34:41;93780.19;;;14.36;65.43
49393;BME280;35268;42.642;23.308;2022-11-06T14:42:28;93786.03;;;14.14;66.30
49393;BME280;35268;42.642;23.308;2022-11-06T14:47:40;93788.38;;;14.03;65.89
49393;BME280;35268;42.642;23.308;2022-11-06T14:52:48;93786.16;;;13.93;65.89
49393;BME280;35268;42.642;23.308;2022-11-06T14:55:26;93784.94;;;13.90;65.48
49393;BME280;35268;42.642;23.308;2022-11-06T14:57:53;93794.75;;;13.86;65.76
49393;BME280;35268;42.642;23.308;2022-11-06T15:00:37;93794.63;;;13.82;65.64
49393;BME280;35268;42.642;23.308;2022-11-06T15:03:17;93796.19;;;13.83;65.84
49393;BME280;35268;42.642;23.308;2022-11-06T15:05:44;93793.06;;;13.81;65.72
49393;BME280;35268;42.642;23.308;2022-11-06T15:08:10;93795.28;;;13.79;65.41
49393;BME280;35268;42.642;23.308;2022-11-06T15:15:43;93811.50;;;13.83;65.71
49393;BME280;35268;42.642;23.308;2022-11-06T15:18:11;93811.81;;;13.81;65.89
49393;BME280;35268;42.642;23.308;2022-11-06T15:20:39;93815.94;;;13.79;65.88
49393;BME280;35268;42.642;23.308;2022-11-06T15:23:18;93817.84;;;13.78;65.87
49393;BME280;35268;42.642;23.308;2022-11-06T15:26:03;93813.59;;;13.77;66.31
49393;BME280;35268;42.642;23.308;2022-11-06T15:28:38;93827.44;;;13.79;66.33
49393;BME280;35268;42.642;23.308;2022-11-06T15:31:10;93821.31;;;13.79;66.28
49393;BME280;35268;42.642;23.308;2022-11-06T15:36:15;93835.34;;;13.76;66.00
49393;BME280;35268;42.642;23.308;2022-11-06T15:38:43;93827.69;;;13.74;65.58